Time;durP1;ratioP1;P1;durP2;ratioP2;P2;SDS_P1;SDS_P2;PMS_P1;PMS_P2;Temp;Humidity;BMP_temperature;BMP_pressure;BME280_temperature;BME280_humidity;BME280_pressure;Samples;Min_cycle;Max_cycle;Signal;HPM_P1;HPM_P2
2023/03/15 00:01:02;;;;;;;8.82;5.68;;;13.40;99.90;;;;;;5039755;28;20076;-51
2023/03/15 00:03:29;;;;;;;11.32;5.07;;;13.50;99.90;;;;;;5047499;28;20195;-52
2023/03/15 00:05:55;;;;;;;9.43;4.85;;;13.50;99.90;;;;;;5049473;28;20500;-53
2023/03/15 00:08:20;;;;;;;7.68;4.45;;;13.50;99.90;;;;;;5044763;28;20029;-51
2023/03/15 00:10:47;;;;;;;7.97;5.10;;;13.50;99.90;;;;;;5046576;28;20091;-51
2023/03/15 00:13:14;;;;;;;8.60;5.10;;;13.50;99.90;;;;;;5041988;28;20017;-52
2023/03/15 00:15:51;;;;;;;7.38;4.82;;;13.30;99.90;;;;;;5041412;28;20134;-51
2023/03/15 00:18:19;;;;;;;10.65;5.68;;;13.30;99.90;;;;;;5043602;28;20120;-52
2023/03/15 00:20:46;;;;;;;10.90;4.32;;;13.20;99.90;;;;;;5046794;28;20041;-52
2023/03/15 00:23:12;;;;;;;8.18;5.05;;;13.20;99.90;;;;;;5043494;28;20053;-51
2023/03/15 00:25:39;;;;;;;8.90;5.45;;;13.20;99.90;;;;;;5046874;28;20029;-52
2023/03/15 00:28:05;;;;;;;7.10;5.47;;;13.20;99.90;;;;;;5048442;28;20032;-51
2023/03/15 00:30:31;;;;;;;7.82;5.00;;;13.30;99.90;;;;;;5052926;28;20398;-50
2023/03/15 00:32:57;;;;;;;10.43;6.30;;;13.20;99.90;;;;;;5032720;28;20180;-52
2023/03/15 00:35:23;;;;;;;9.38;5.88;;;13.20;99.90;;;;;;5041993;28;20136;-50
2023/03/15 00:37:53;;;;;;;8.63;5.03;;;13.20;99.90;;;;;;5030054;28;20076;-52
2023/03/15 00:40:19;;;;;;;20.35;11.02;;;13.10;99.90;;;;;;5031373;28;20014;-52
2023/03/15 00:42:48;;;;;;;26.55;16.85;;;13.10;99.90;;;;;;5028549;28;20032;-52
2023/03/15 00:45:15;;;;;;;26.85;18.08;;;13.10;99.90;;;;;;5028922;28;20160;-51
2023/03/15 00:47:41;;;;;;;30.05;19.98;;;13.10;99.90;;;;;;5027312;28;20099;-52
2023/03/15 00:50:07;;;;;;;23.23;16.10;;;13.10;99.90;;;;;;5034771;28;20540;-53
2023/03/15 00:52:34;;;;;;;10.77;7.00;;;13.10;99.90;;;;;;5024409;28;20045;-50
2023/03/15 00:55:00;;;;;;;8.00;5.35;;;13.10;99.90;;;;;;5027448;28;20164;-52
2023/03/15 00:57:26;;;;;;;8.02;5.18;;;13.10;99.90;;;;;;5027652;28;20113;-48
2023/03/15 00:59:52;;;;;;;10.40;4.65;;;13.10;99.90;;;;;;5028644;28;20544;-53
2023/03/15 01:02:20;;;;;;;8.32;5.00;;;13.00;99.90;;;;;;5029226;28;20048;-52
2023/03/15 01:04:47;;;;;;;10.38;5.35;;;13.00;99.90;;;;;;5020439;28;20054;-53
2023/03/15 01:07:13;;;;;;;14.07;6.47;;;13.00;99.90;;;;;;5023890;28;21178;-54
2023/03/15 01:09:39;;;;;;;8.90;5.25;;;13.00;99.90;;;;;;5026880;28;20115;-52
2023/03/15 01:12:05;;;;;;;7.43;4.45;;;12.80;99.90;;;;;;5009812;28;20041;-51
2023/03/15 01:14:34;;;;;;;7.32;4.53;;;12.80;99.90;;;;;;5013234;28;20570;-50
2023/03/15 01:16:59;;;;;;;7.68;5.30;;;12.80;99.90;;;;;;5024822;28;20047;-53
2023/03/15 01:19:25;;;;;;;11.55;5.25;;;12.80;99.90;;;;;;5023864;28;20022;-51
2023/03/15 01:21:52;;;;;;;7.82;5.10;;;12.80;99.90;;;;;;5021787;28;20708;-51
2023/03/15 01:24:17;;;;;;;11.07;5.75;;;12.70;99.90;;;;;;5006936;28;20049;-54
2023/03/15 01:26:43;;;;;;;8.55;5.03;;;12.70;99.90;;;;;;5023388;28;20052;-52
2023/03/15 01:29:09;;;;;;;11.05;5.90;;;12.70;99.90;;;;;;5030240;28;20088;-54
2023/03/15 01:31:35;;;;;;;7.90;5.00;;;;;;;;;;5032312;28;20034;-54
2023/03/15 01:34:01;;;;;;;9.80;5.43;;;12.60;99.90;;;;;;5033185;28;20034;-52
2023/03/15 01:36:27;;;;;;;9.57;5.38;;;12.60;99.90;;;;;;5033208;28;20447;-53
2023/03/15 01:38:53;;;;;;;8.75;6.28;;;12.60;99.90;;;;;;5033148;28;20055;-52
2023/03/15 01:41:20;;;;;;;7.57;5.32;;;12.70;99.90;;;;;;5035182;28;20420;-51
2023/03/15 01:43:48;;;;;;;7.38;5.03;;;12.60;99.90;;;;;;5035531;28;20438;-51
2023/03/15 01:46:23;;;;;;;8.85;5.80;;;12.60;99.90;;;;;;5033425;28;20512;-53
2023/03/15 01:49:06;;;;;;;7.85;5.28;;;12.40;99.90;;;;;;5035159;28;20450;-53
2023/03/15 01:51:41;;;;;;;9.75;5.63;;;12.50;99.90;;;;;;5033424;28;20491;-53
2023/03/15 01:54:16;;;;;;;7.93;5.30;;;12.30;99.90;;;;;;5034771;28;20136;-53
2023/03/15 01:56:45;;;;;;;9.45;5.55;;;;;;;;;;5034814;28;20082;-53
2023/03/15 01:59:20;;;;;;;7.97;5.38;;;12.20;99.90;;;;;;5034864;28;20029;-51
2023/03/15 02:01:49;;;;;;;7.30;4.80;;;12.20;99.90;;;;;;5035039;28;20052;-52
2023/03/15 02:04:23;;;;;;;7.10;4.63;;;12.20;99.90;;;;;;5034803;28;20040;-52
2023/03/15 02:06:57;;;;;;;8.30;5.20;;;12.20;99.90;;;;;;5034850;28;20033;-54
2023/03/15 02:09:28;;;;;;;6.75;4.97;;;12.10;99.90;;;;;;5034601;28;20083;-52
2023/03/15 02:11:56;;;;;;;6.65;4.35;;;12.10;99.90;;;;;;5034643;28;20049;-53
2023/03/15 02:14:22;;;;;;;10.55;5.35;;;12.10;99.90;;;;;;5032717;28;20497;-52
2023/03/15 02:16:52;;;;;;;7.75;5.18;;;12.10;99.90;;;;;;5049416;28;20045;-51
2023/03/15 02:19:52;;;;;;;7.32;4.50;;;12.20;99.90;;;;;;5035034;28;20061;-54
2023/03/15 02:22:51;;;;;;;6.60;4.80;;;12.10;99.90;;;;;;5034381;28;20057;-51
2023/03/15 02:25:47;;;;;;;7.90;4.72;;;12.00;99.90;;;;;;5032247;28;20492;-54
2023/03/15 02:28:16;;;;;;;8.88;5.45;;;12.00;99.90;;;;;;5032157;28;20076;-54
2023/03/15 02:30:43;;;;;;;7.20;5.00;;;11.90;99.90;;;;;;5032213;28;20022;-53
2023/03/15 02:33:33;;;;;;;7.70;5.63;;;11.90;99.90;;;;;;5032196;28;20037;-51
2023/03/15 02:36:19;;;;;;;7.82;5.18;;;11.90;99.90;;;;;;5032114;28;20485;-52
2023/03/15 02:38:46;;;;;;;8.10;5.28;;;11.80;99.90;;;;;;5032069;28;20052;-53
2023/03/15 02:41:14;;;;;;;9.48;5.80;;;11.90;99.90;;;;;;4982534;28;20508;-52
2023/03/15 02:43:40;;;;;;;9.70;4.80;;;11.90;99.90;;;;;;5032008;28;20029;-53
2023/03/15 02:46:07;;;;;;;9.68;5.25;;;11.70;99.90;;;;;;4998911;28;20041;-52
2023/03/15 02:48:35;;;;;;;10.07;4.00;;;11.70;99.90;;;;;;5031873;28;20092;-53
2023/03/15 02:51:01;;;;;;;8.35;4.88;;;11.70;99.90;;;;;;5031862;28;20155;-50
2023/03/15 02:53:31;;;;;;;5.72;3.80;;;11.80;99.90;;;;;;5031759;28;20112;-52
2023/03/15 02:55:58;;;;;;;8.80;5.00;;;11.70;99.90;;;;;;5015098;28;20164;-51
2023/03/15 02:58:23;;;;;;;8.65;4.72;;;11.80;99.90;;;;;;5031816;28;20029;-51
2023/03/15 03:00:52;;;;;;;15.20;6.78;;;11.70;99.90;;;;;;5031972;28;20038;-53
2023/03/15 03:03:18;;;;;;;7.78;5.45;;;11.70;99.90;;;;;;5033461;28;20029;-53
2023/03/15 03:05:44;;;;;;;7.80;5.38;;;11.70;99.90;;;;;;5033936;28;20118;-52
2023/03/15 03:08:10;;;;;;;9.07;5.18;;;11.70;99.90;;;;;;5033831;28;20025;-53
2023/03/15 03:10:35;;;;;;;7.20;4.47;;;11.50;99.90;;;;;;5031491;28;20034;-53
2023/03/15 03:13:01;;;;;;;7.05;4.80;;;11.50;99.90;;;;;;5033508;28;20029;-53
2023/03/15 03:15:27;;;;;;;8.48;4.85;;;11.50;99.90;;;;;;5033498;28;20436;-52
2023/03/15 03:17:53;;;;;;;7.13;5.20;;;11.50;99.90;;;;;;5033487;28;20036;-53
2023/03/15 03:20:19;;;;;;;5.10;4.22;;;11.50;99.90;;;;;;5033513;28;20025;-52
2023/03/15 03:22:45;;;;;;;8.35;4.50;;;11.50;99.90;;;;;;5033210;28;20057;-52
2023/03/15 03:25:12;;;;;;;19.25;5.10;;;11.50;99.90;;;;;;5033526;28;20087;-54
2023/03/15 03:27:39;;;;;;;8.23;4.30;;;11.40;99.90;;;;;;5033311;28;20026;-52
2023/03/15 03:30:08;;;;;;;5.47;3.67;;;11.50;99.90;;;;;;5033679;28;20030;-53
2023/03/15 03:32:34;;;;;;;5.18;3.88;;;11.40;99.90;;;;;;5033325;28;20025;-52
2023/03/15 03:35:00;;;;;;;5.70;3.85;;;11.50;99.90;;;;;;5033450;28;20041;-52
2023/03/15 03:37:26;;;;;;;6.10;3.83;;;11.50;99.90;;;;;;5033217;28;20094;-51
2023/03/15 03:39:51;;;;;;;6.50;3.70;;;11.50;99.90;;;;;;5033291;28;20029;-52
2023/03/15 03:42:17;;;;;;;6.18;3.08;;;11.50;99.90;;;;;;5033126;28;20026;-51
2023/03/15 03:44:43;;;;;;;4.97;3.53;;;11.50;99.90;;;;;;5033109;28;20025;-51
2023/03/15 03:47:09;;;;;;;4.35;3.10;;;11.40;99.90;;;;;;5033262;28;20117;-51
2023/03/15 03:49:34;;;;;;;5.43;3.30;;;11.40;99.90;;;;;;5031200;28;20038;-51
2023/03/15 03:52:00;;;;;;;4.22;2.75;;;11.40;99.90;;;;;;5033041;28;20478;-54
2023/03/15 03:54:26;;;;;;;5.82;3.60;;;11.30;99.90;;;;;;5000773;28;20046;-52
2023/03/15 03:56:52;;;;;;;5.97;3.67;;;11.20;99.90;;;;;;5037136;28;20389;-51
2023/03/15 03:59:18;;;;;;;4.55;3.47;;;11.30;99.90;;;;;;5037356;28;20029;-54
2023/03/15 04:01:44;;;;;;;3.55;2.75;;;11.30;99.90;;;;;;5037094;28;20476;-53
2023/03/15 04:04:12;;;;;;;3.50;2.83;;;11.30;99.90;;;;;;5035397;28;20497;-51
2023/03/15 04:06:44;;;;;;;7.63;3.63;;;11.40;99.90;;;;;;5036932;28;20057;-53
2023/03/15 04:09:12;;;;;;;4.03;2.75;;;11.40;99.90;;;;;;5036867;28;20461;-51
2023/03/15 04:11:41;;;;;;;3.85;2.70;;;11.40;99.90;;;;;;5037096;28;20035;-51
2023/03/15 04:14:11;;;;;;;5.15;3.10;;;11.40;99.90;;;;;;5036865;28;20535;-51
2023/03/15 04:16:37;;;;;;;3.50;2.67;;;11.40;99.90;;;;;;5035070;28;20436;-50
2023/03/15 04:19:04;;;;;;;6.88;3.38;;;11.30;99.90;;;;;;5036786;28;20029;-53
2023/03/15 04:21:30;;;;;;;8.30;2.85;;;11.20;99.90;;;;;;5036671;28;20038;-51
2023/03/15 04:23:58;;;;;;;5.63;3.00;;;11.20;99.90;;;;;;5036912;28;20037;-55
2023/03/15 04:26:25;;;;;;;3.70;2.47;;;11.30;99.90;;;;;;5036766;28;20037;-51
2023/03/15 04:28:55;;;;;;;4.50;2.33;;;11.30;99.90;;;;;;5034694;28;20481;-52
2023/03/15 04:31:25;;;;;;;4.97;2.30;;;11.30;99.90;;;;;;5036809;28;20025;-53
2023/03/15 04:33:55;;;;;;;4.18;2.70;;;11.40;99.90;;;;;;5036161;28;20469;-50
2023/03/15 04:36:22;;;;;;;2.92;2.35;;;11.40;99.90;;;;;;5036611;28;20026;-52
2023/03/15 04:38:49;;;;;;;3.60;2.40;;;11.30;99.90;;;;;;5036304;28;20491;-53
2023/03/15 04:41:16;;;;;;;4.25;2.33;;;11.20;99.90;;;;;;5036357;28;20181;-51
2023/03/15 04:43:42;;;;;;;2.60;2.03;;;11.30;99.90;;;;;;5036379;28;20079;-52
2023/03/15 04:46:08;;;;;;;3.92;1.83;;;11.30;99.90;;;;;;5036117;28;20120;-53
2023/03/15 04:48:35;;;;;;;11.68;2.40;;;11.20;99.90;;;;;;5036345;28;20044;-51
2023/03/15 04:51:01;;;;;;;2.45;2.00;;;11.20;99.90;;;;;;5036192;28;20073;-54
2023/03/15 04:53:26;;;;;;;4.18;2.58;;;11.20;99.90;;;;;;5036239;28;20559;-51
2023/03/15 04:55:52;;;;;;;2.22;1.80;;;11.10;99.90;;;;;;5034075;28;20087;-51
2023/03/15 04:58:18;;;;;;;2.85;2.10;;;;;;;;;;5034176;28;20120;-52
2023/03/15 05:00:44;;;;;;;2.50;2.00;;;10.80;99.90;;;;;;5036123;28;20472;-53
2023/03/15 05:03:10;;;;;;;3.15;2.17;;;10.90;99.90;;;;;;5036059;28;20479;-51
2023/03/15 05:05:36;;;;;;;3.08;1.77;;;10.80;99.90;;;;;;5034094;28;20113;-51
2023/03/15 05:08:02;;;;;;;5.22;2.78;;;10.70;99.90;;;;;;5035809;28;20036;-51
2023/03/15 05:10:31;;;;;;;3.45;2.17;;;10.80;99.90;;;;;;5035899;28;20032;-53
2023/03/15 05:12:57;;;;;;;3.05;2.33;;;10.70;99.90;;;;;;5033914;28;20038;-53
2023/03/15 05:15:23;;;;;;;2.97;2.25;;;10.70;99.90;;;;;;5017093;28;20099;-51
2023/03/15 05:17:49;;;;;;;3.92;2.13;;;10.70;99.90;;;;;;5035710;28;20067;-51
2023/03/15 05:20:15;;;;;;;6.70;2.40;;;10.80;99.90;;;;;;5035873;28;20033;-52
2023/03/15 05:22:41;;;;;;;2.92;2.30;;;10.90;99.90;;;;;;5035478;28;20049;-52
2023/03/15 05:25:09;;;;;;;3.88;2.47;;;10.90;99.90;;;;;;5035569;28;20053;-52
2023/03/15 05:27:35;;;;;;;3.80;2.65;;;10.90;99.90;;;;;;5035763;28;20033;-53
2023/03/15 05:30:04;;;;;;;3.58;2.38;;;10.90;99.90;;;;;;5035643;28;20033;-51
2023/03/15 05:32:33;;;;;;;3.72;2.63;;;10.80;99.90;;;;;;5033778;28;20038;-52
2023/03/15 05:35:02;;;;;;;2.60;1.98;;;10.80;99.90;;;;;;5035179;28;20068;-53
2023/03/15 05:37:31;;;;;;;4.32;2.50;;;10.80;99.90;;;;;;5035561;28;20025;-53
2023/03/15 05:39:57;;;;;;;3.28;2.47;;;10.80;99.90;;;;;;5035271;28;20029;-53
2023/03/15 05:42:25;;;;;;;6.45;2.65;;;10.80;99.90;;;;;;5035168;28;20030;-53
2023/03/15 05:44:52;;;;;;;3.05;2.47;;;10.80;99.90;;;;;;5035454;28;20041;-53
2023/03/15 05:47:18;;;;;;;3.95;2.65;;;10.70;99.90;;;;;;5034996;28;20030;-51
2023/03/15 05:49:45;;;;;;;5.05;2.45;;;10.80;99.90;;;;;;5033346;28;20171;-53
2023/03/15 05:52:11;;;;;;;3.90;2.40;;;10.80;99.90;;;;;;5035194;28;20540;-51
2023/03/15 05:54:37;;;;;;;2.80;2.22;;;10.80;99.90;;;;;;5033121;28;20041;-52
2023/03/15 05:57:03;;;;;;;2.88;2.13;;;10.80;99.90;;;;;;5035014;28;20033;-53
2023/03/15 05:59:28;;;;;;;4.28;2.22;;;10.80;99.90;;;;;;5033145;28;20045;-52
2023/03/15 06:01:54;;;;;;;4.88;2.00;;;10.70;99.90;;;;;;5034322;28;20037;-50
2023/03/15 06:04:20;;;;;;;3.92;2.38;;;10.70;99.90;;;;;;5034828;28;20037;-52
2023/03/15 06:06:46;;;;;;;4.63;2.35;;;10.70;99.90;;;;;;5049754;28;20033;-52
2023/03/15 06:09:12;;;;;;;1.98;1.58;;;10.70;99.90;;;;;;5035030;28;20108;-51
2023/03/15 06:11:37;;;;;;;3.10;2.10;;;10.60;99.90;;;;;;5034875;28;20029;-54
2023/03/15 06:14:03;;;;;;;2.40;1.90;;;10.60;99.90;;;;;;5032830;28;20168;-54
2023/03/15 06:16:29;;;;;;;2.78;2.30;;;10.50;99.90;;;;;;5048761;28;20132;-52
2023/03/15 06:18:55;;;;;;;3.67;1.90;;;10.50;99.90;;;;;;5034893;28;20087;-53
2023/03/15 06:21:21;;;;;;;5.43;2.25;;;10.40;99.90;;;;;;5034341;28;20045;-52
2023/03/15 06:23:46;;;;;;;4.88;2.90;;;10.50;99.90;;;;;;5034773;28;20084;-53
2023/03/15 06:26:14;;;;;;;3.83;2.15;;;10.50;99.90;;;;;;5035137;28;20109;-52
2023/03/15 06:28:40;;;;;;;4.03;2.47;;;10.50;99.90;;;;;;5035466;28;20037;-54
2023/03/15 06:31:11;;;;;;;3.13;2.05;;;10.50;99.90;;;;;;5035677;28;20029;-52
2023/03/15 06:33:37;;;;;;;2.25;1.48;;;10.60;99.90;;;;;;5035056;28;20036;-54
2023/03/15 06:36:04;;;;;;;2.92;1.80;;;10.40;99.90;;;;;;4999767;28;20065;-52
2023/03/15 06:38:30;;;;;;;6.55;2.20;;;10.50;99.90;;;;;;5016238;28;20099;-52
2023/03/15 06:41:00;;;;;;;4.68;2.42;;;10.50;99.90;;;;;;5032569;28;20037;-51
2023/03/15 06:43:26;;;;;;;3.08;2.17;;;10.50;99.90;;;;;;5032665;28;20033;-56
2023/03/15 06:45:54;;;;;;;2.85;1.70;;;10.40;99.90;;;;;;5033008;28;20555;-55
2023/03/15 06:48:20;;;;;;;6.95;3.95;;;10.40;99.90;;;;;;5032529;28;20041;-54
2023/03/15 06:50:46;;;;;;;6.28;3.67;;;10.50;99.90;;;;;;5032857;28;20038;-55
2023/03/15 06:53:12;;;;;;;6.28;3.08;;;10.50;99.90;;;;;;5033128;28;20412;-51
2023/03/15 06:55:38;;;;;;;12.85;3.95;;;10.50;99.90;;;;;;5031971;28;20049;-52
2023/03/15 06:58:04;;;;;;;7.40;4.70;;;10.50;99.90;;;;;;5031673;28;20056;-54
2023/03/15 07:00:29;;;;;;;10.23;5.38;;;10.60;99.90;;;;;;5025628;28;20041;-52
2023/03/15 07:02:55;;;;;;;8.18;4.75;;;10.50;99.90;;;;;;5019660;28;20022;-51
2023/03/15 07:05:21;;;;;;;4.97;3.15;;;10.60;99.90;;;;;;5021739;28;20048;-52
2023/03/15 07:07:47;;;;;;;8.32;5.18;;;10.50;99.90;;;;;;5023857;28;20381;-53
2023/03/15 07:10:12;;;;;;;9.68;5.38;;;10.50;99.90;;;;;;5024331;28;21378;-51
2023/03/15 07:12:38;;;;;;;12.15;6.68;;;10.50;99.90;;;;;;5028077;28;20369;-53
2023/03/15 07:15:04;;;;;;;7.40;3.38;;;10.60;99.90;;;;;;5014966;28;20045;-51
2023/03/15 07:17:30;;;;;;;15.70;9.60;;;10.50;99.90;;;;;;5033389;28;20025;-54
2023/03/15 07:19:56;;;;;;;10.23;5.63;;;10.60;99.90;;;;;;5033445;28;20040;-56
2023/03/15 07:22:21;;;;;;;10.02;5.38;;;10.50;99.90;;;;;;5034713;28;20057;-54
2023/03/15 07:24:47;;;;;;;13.80;7.15;;;10.60;99.90;;;;;;5033346;28;20037;-52
2023/03/15 07:27:13;;;;;;;20.27;9.38;;;10.60;99.90;;;;;;5033329;28;20057;-56
2023/03/15 07:29:40;;;;;;;6.05;4.05;;;10.60;99.90;;;;;;5026127;28;20026;-50
2023/03/15 07:32:06;;;;;;;18.13;9.13;;;10.50;99.90;;;;;;5013600;28;20032;-53
2023/03/15 07:34:32;;;;;;;6.53;4.25;;;10.60;99.90;;;;;;5013325;28;20045;-56
2023/03/15 07:36:57;;;;;;;6.28;4.50;;;10.60;99.90;;;;;;5013425;28;20034;-55
2023/03/15 07:39:25;;;;;;;8.55;3.70;;;10.70;99.90;;;;;;5028038;28;20034;-53
2023/03/15 07:41:52;;;;;;;8.15;4.65;;;10.70;99.90;;;;;;5022942;28;20064;-52
2023/03/15 07:44:18;;;;;;;5.95;4.28;;;10.70;99.90;;;;;;5031390;28;20040;-54
2023/03/15 07:46:44;;;;;;;4.03;3.38;;;10.70;99.90;;;;;;5033122;28;20029;-51
2023/03/15 07:49:10;;;;;;;5.30;4.47;;;10.60;99.90;;;;;;5032911;28;20079;-56
2023/03/15 07:51:35;;;;;;;4.93;3.85;;;10.60;99.90;;;;;;5031164;28;20037;-55
2023/03/15 07:54:01;;;;;;;6.88;4.28;;;10.80;99.90;;;;;;5033013;28;20474;-54
2023/03/15 07:56:28;;;;;;;5.47;2.88;;;10.70;99.90;;;;;;5026782;28;20061;-56
2023/03/15 07:58:53;;;;;;;5.55;3.40;;;10.70;99.90;;;;;;5013338;28;20022;-51
2023/03/15 08:01:20;;;;;;;7.22;3.30;;;10.80;99.90;;;;;;5013736;28;20062;-53
2023/03/15 08:03:46;;;;;;;6.15;3.20;;;10.80;99.90;;;;;;5030153;28;20033;-53
2023/03/15 08:06:12;;;;;;;3.08;2.60;;;10.70;99.90;;;;;;5032868;28;20106;-53
2023/03/15 08:08:38;;;;;;;3.28;2.08;;;10.70;99.90;;;;;;5032925;28;20033;-53
2023/03/15 08:11:04;;;;;;;4.45;2.25;;;10.60;99.90;;;;;;5032922;28;20029;-54
2023/03/15 08:13:30;;;;;;;3.38;2.70;;;10.50;99.90;;;;;;5027438;28;20060;-58
2023/03/15 08:15:56;;;;;;;3.67;2.35;;;10.50;99.90;;;;;;5019203;28;20033;-54
2023/03/15 08:18:22;;;;;;;4.68;2.83;;;10.60;99.90;;;;;;5024524;28;20041;-55
2023/03/15 08:20:47;;;;;;;5.75;2.30;;;10.60;99.90;;;;;;5026481;28;20034;-54
2023/03/15 08:23:15;;;;;;;4.35;2.30;;;10.50;99.90;;;;;;5023457;28;20145;-56
2023/03/15 08:25:42;;;;;;;5.65;3.20;;;10.50;99.90;;;;;;5029402;28;20037;-53
2023/03/15 08:28:09;;;;;;;3.20;2.60;;;10.70;99.90;;;;;;5043108;28;20038;-52
2023/03/15 08:30:35;;;;;;;4.97;2.47;;;10.70;99.90;;;;;;5049089;28;20073;-53
2023/03/15 08:33:02;;;;;;;7.20;2.65;;;10.70;99.90;;;;;;5044771;28;20032;-56
2023/03/15 08:35:29;;;;;;;5.80;2.38;;;10.70;99.90;;;;;;5014603;28;20076;-52
2023/03/15 08:37:55;;;;;;;4.13;2.47;;;10.60;99.90;;;;;;5046934;28;20607;-51
2023/03/15 08:40:23;;;;;;;6.22;3.10;;;10.60;99.90;;;;;;5016913;28;20116;-50
2023/03/15 08:42:50;;;;;;;14.40;3.72;;;10.70;99.90;;;;;;5048298;28;20032;-55
2023/03/15 08:45:16;;;;;;;3.65;3.05;;;10.90;99.90;;;;;;5050666;28;20029;-55
2023/03/15 08:47:42;;;;;;;5.15;3.72;;;10.70;99.90;;;;;;5050307;28;20047;-53
2023/03/15 08:50:14;;;;;;;5.90;3.58;;;10.80;99.90;;;;;;5051493;28;20029;-55
2023/03/15 08:52:40;;;;;;;3.30;2.75;;;10.90;99.90;;;;;;5050749;28;20603;-54
2023/03/15 08:55:06;;;;;;;4.60;2.88;;;10.80;99.90;;;;;;5043290;28;20116;-53
2023/03/15 08:57:32;;;;;;;3.90;2.00;;;10.70;99.90;;;;;;5030925;28;20045;-56
2023/03/15 09:00:00;;;;;;;3.83;2.90;;;10.20;99.90;;;;;;5033572;28;20037;-54
2023/03/15 09:02:29;;;;;;;3.75;2.38;;;10.20;99.90;;;;;;5032582;28;20552;-52
2023/03/15 09:04:55;;;;;;;5.63;4.05;;;10.20;99.90;;;;;;5034102;28;20041;-54
2023/03/15 09:07:21;;;;;;;2.60;1.63;;;10.20;99.90;;;;;;5030557;28;20021;-56
2023/03/15 09:09:47;;;;;;;4.07;2.40;;;10.10;99.90;;;;;;5049331;28;20037;-54
2023/03/15 09:12:15;;;;;;;3.10;2.72;;;10.00;99.90;;;;;;5032781;28;20091;-51
2023/03/15 09:14:41;;;;;;;5.22;3.10;;;10.00;99.90;;;;;;5031577;28;20041;-54
2023/03/15 09:17:06;;;;;;;4.07;3.00;;;10.10;99.90;;;;;;5030545;28;20040;-53
2023/03/15 09:19:32;;;;;;;5.18;3.10;;;10.10;99.90;;;;;;5028586;28;20057;-51
2023/03/15 09:21:58;;;;;;;4.30;2.92;;;10.20;99.90;;;;;;5026077;28;20053;-50
2023/03/15 09:24:24;;;;;;;6.25;3.67;;;10.20;99.90;;;;;;5029340;28;20099;-54
2023/03/15 09:26:49;;;;;;;3.88;3.20;;;10.20;99.90;;;;;;5031178;28;20029;-53
2023/03/15 09:29:15;;;;;;;5.60;3.13;;;10.10;99.90;;;;;;5028082;28;20033;-51
2023/03/15 09:31:41;;;;;;;3.40;2.15;;;10.10;99.90;;;;;;5027223;28;20036;-53
2023/03/15 09:34:07;;;;;;;4.47;3.28;;;10.20;99.90;;;;;;5037543;28;20049;-53
2023/03/15 09:36:33;;;;;;;6.50;4.70;;;10.20;99.90;;;;;;5028305;28;20037;-51
2023/03/15 09:39:00;;;;;;;11.40;9.77;;;10.10;99.90;;;;;;5024174;28;20078;-52
2023/03/15 09:41:31;;;;;;;28.58;17.83;;;10.00;99.90;;;;;;5027156;28;20033;-51
2023/03/15 09:44:03;;;;;;;31.27;19.98;;;9.90;99.90;;;;;;5047898;28;20397;-53
2023/03/15 09:46:31;;;;;;;53.53;33.70;;;9.80;99.90;;;;;;5032840;28;20437;-51
2023/03/15 09:49:23;;;;;;;10.18;6.20;;;;;;;;;;5028560;28;20087;-52
2023/03/15 09:51:58;;;;;;;32.83;18.38;;;9.60;99.90;;;;;;5030820;28;20034;-53
2023/03/15 09:54:31;;;;;;;17.45;13.30;;;9.60;99.90;;;;;;5032223;28;20038;-51
2023/03/15 09:57:09;;;;;;;6.07;4.30;;;9.40;99.90;;;;;;5029182;28;20025;-55
2023/03/15 09:59:41;;;;;;;1.70;1.50;;;9.40;99.90;;;;;;5025437;28;20048;-53
2023/03/15 10:02:29;;;;;;;2.47;2.00;;;9.50;99.90;;;;;;5029568;28;20729;-54
2023/03/15 10:05:04;;;;;;;4.95;3.63;;;9.50;99.90;;;;;;5032555;28;20053;-54
2023/03/15 10:07:31;;;;;;;8.45;4.32;;;9.50;99.90;;;;;;5031343;28;20063;-51
2023/03/15 10:09:57;;;;;;;8.77;4.32;;;9.50;99.90;;;;;;5027236;28;20029;-52
2023/03/15 10:12:40;;;;;;;6.32;4.88;;;9.50;99.90;;;;;;5026665;28;20037;-52
2023/03/15 10:15:29;;;;;;;6.68;4.82;;;9.50;99.90;;;;;;5030085;28;20044;-54
2023/03/15 10:17:57;;;;;;;7.25;5.53;;;9.50;99.90;;;;;;5029111;28;20029;-51
2023/03/15 10:20:40;;;;;;;9.13;5.07;;;9.60;99.90;;;;;;5031969;28;20029;-54
2023/03/15 10:23:05;;;;;;;;;;;9.60;99.90;;;;;;5031964;28;20493;-51
2023/03/15 10:25:32;;;;;;;7.22;5.03;;;9.60;99.90;;;;;;5031898;28;19913;-53
2023/03/15 10:28:06;;;;;;;5.53;3.85;;;9.60;99.90;;;;;;5023955;28;20025;-53
2023/03/15 10:30:36;;;;;;;6.43;4.32;;;9.50;99.90;;;;;;5025194;28;20044;-52
2023/03/15 10:33:34;;;;;;;9.90;5.68;;;9.50;99.90;;;;;;5032029;28;20061;-50
2023/03/15 10:36:03;;;;;;;8.27;5.30;;;9.40;99.90;;;;;;5061837;28;20548;-52
2023/03/15 10:38:28;;;;;;;6.05;4.00;;;9.50;99.90;;;;;;5024127;28;20474;-50
2023/03/15 10:40:59;;;;;;;7.22;3.75;;;9.50;99.90;;;;;;5030697;28;20040;-51
2023/03/15 10:43:31;;;;;;;6.25;3.95;;;9.40;99.90;;;;;;5023539;28;20068;-52
2023/03/15 10:46:31;;;;;;;10.50;5.63;;;9.30;99.90;;;;;;5030948;28;20037;-55
2023/03/15 10:48:58;;;;;;;4.93;3.67;;;9.20;99.90;;;;;;5028836;28;20040;-52
2023/03/15 10:51:28;;;;;;;6.82;4.35;;;9.20;99.90;;;;;;5029654;28;20025;-54
2023/03/15 10:54:18;;;;;;;12.32;6.25;;;9.20;99.90;;;;;;5037501;28;20049;-50
2023/03/15 10:56:58;;;;;;;5.55;3.42;;;9.20;99.90;;;;;;5024928;28;20041;-53
2023/03/15 10:59:26;;;;;;;7.95;4.70;;;9.10;99.90;;;;;;5042589;28;20051;-54
2023/03/15 11:02:06;;;;;;;2.75;1.40;;;9.00;99.90;;;;;;5023917;28;20053;-50
2023/03/15 11:04:33;;;;;;;4.45;1.50;;;8.90;99.90;;;;;;5057867;28;20509;-54
2023/03/15 11:07:02;;;;;;;2.50;1.30;;;8.90;99.90;;;;;;5024518;28;20083;-53
2023/03/15 11:09:40;;;;;;;2.00;1.45;;;8.70;99.90;;;;;;5027998;28;20048;-50
2023/03/15 11:12:26;;;;;;;5.05;1.77;;;8.70;99.90;;;;;;5027077;28;20036;-52
2023/03/15 11:14:59;;;;;;;3.47;2.00;;;8.50;99.90;;;;;;5030737;28;20040;-52
2023/03/15 11:17:33;;;;;;;1.52;1.15;;;8.30;99.90;;;;;;5031438;28;20064;-53
2023/03/15 11:20:16;;;;;;;9.13;5.15;;;8.30;99.90;;;;;;5030014;28;20026;-50
2023/03/15 11:22:42;;;;;;;5.03;3.03;;;8.20;99.90;;;;;;5022517;28;20085;-53
2023/03/15 11:25:15;;;;;;;3.00;2.08;;;8.20;99.90;;;;;;5026493;28;20106;-54
2023/03/15 11:27:43;;;;;;;4.22;2.58;;;8.20;99.90;;;;;;5003730;28;20076;-50
2023/03/15 11:30:13;;;;;;;2.70;1.40;;;8.20;99.90;;;;;;5031294;28;20382;-52
2023/03/15 11:32:40;;;;;;;5.43;2.20;;;8.20;99.90;;;;;;5026596;28;20041;-56
2023/03/15 11:35:23;;;;;;;12.43;6.43;;;8.20;99.90;;;;;;5026625;28;20049;-54
2023/03/15 11:38:00;;;;;;;3.20;1.65;;;8.20;99.90;;;;;;5027993;28;20076;-51
2023/03/15 11:40:43;;;;;;;3.03;1.65;;;8.20;99.90;;;;;;5029878;28;20436;-52
2023/03/15 11:43:57;;;;;;;11.27;6.35;;;8.10;99.90;;;;;;5025085;28;20037;-52
2023/03/15 11:46:41;;;;;;;15.90;9.55;;;;;;;;;;5006357;28;20149;-50
2023/03/15 11:49:09;;;;;;;11.18;6.60;;;8.10;99.90;;;;;;5002703;28;20031;-51
2023/03/15 11:51:36;;;;;;;9.30;4.38;;;8.10;99.90;;;;;;5008100;28;20573;-51
2023/03/15 11:54:13;;;;;;;4.50;2.38;;;8.00;99.90;;;;;;5006201;28;20564;-55
2023/03/15 11:56:50;;;;;;;6.45;3.13;;;;;;;;;;5001011;28;20044;-53
2023/03/15 11:59:18;;;;;;;12.10;8.07;;;;;;;;;;4998152;28;20046;-52
2023/03/15 12:01:48;;;;;;;9.65;7.20;;;;;;;;;;5008153;28;20125;-54
2023/03/15 12:04:32;;;;;;;7.85;4.50;;;;;;;;;;5002640;28;20037;-53
2023/03/15 12:07:04;;;;;;;6.15;5.13;;;7.30;99.90;;;;;;4989138;28;20409;-53
2023/03/15 12:09:35;;;;;;;4.22;1.80;;;7.40;99.90;;;;;;5008444;28;20425;-53
2023/03/15 12:12:24;;;;;;;4.03;2.92;;;7.30;99.90;;;;;;5001573;28;20044;-54
2023/03/15 12:15:02;;;;;;;0.98;0.95;;;7.40;99.90;;;;;;4955547;28;20061;-54
2023/03/15 12:17:34;;;;;;;6.03;4.03;;;7.30;99.90;;;;;;4974954;28;20109;-52
2023/03/15 12:20:16;;;;;;;3.92;2.45;;;7.50;99.90;;;;;;4978448;28;20047;-52
2023/03/15 12:22:49;;;;;;;8.25;5.38;;;7.40;99.90;;;;;;4985748;28;20112;-54
2023/03/15 12:25:16;;;;;;;4.68;3.53;;;7.40;99.90;;;;;;5012788;28;20084;-52
2023/03/15 12:27:56;;;;;;;6.47;3.95;;;7.30;99.90;;;;;;5009768;28;20080;-54
2023/03/15 12:30:32;;;;;;;4.53;2.20;;;7.30;99.90;;;;;;5005531;28;20042;-55
2023/03/15 12:33:00;;;;;;;4.88;3.38;;;7.10;99.90;;;;;;5021064;28;20042;-54
2023/03/15 12:35:38;;;;;;;5.72;3.70;;;7.30;99.90;;;;;;5011147;28;20050;-53
2023/03/15 12:38:20;;;;;;;5.40;3.33;;;7.20;99.90;;;;;;5007993;28;20029;-53
2023/03/15 12:40:56;;;;;;;4.93;3.28;;;7.20;99.90;;;;;;5016144;28;20033;-55
2023/03/15 12:43:40;;;;;;;8.60;4.22;;;7.10;99.90;;;;;;5006266;28;20087;-52
2023/03/15 12:46:06;;;;;;;4.78;3.45;;;7.20;99.90;;;;;;5024012;28;20041;-52
2023/03/15 12:48:32;;;;;;;5.45;3.40;;;7.20;99.90;;;;;;5050402;28;20112;-53
2023/03/15 12:51:02;;;;;;;5.57;3.58;;;7.30;99.90;;;;;;5032550;28;20113;-52
2023/03/15 12:53:35;;;;;;;5.00;2.90;;;7.40;99.90;;;;;;5025432;28;20478;-53
2023/03/15 12:56:39;;;;;;;2.17;1.30;;;7.30;99.90;;;;;;5032016;28;20033;-54
2023/03/15 12:59:27;;;;;;;9.35;5.30;;;7.20;99.90;;;;;;5027680;28;20051;-54
2023/03/15 13:01:55;;;;;;;5.78;3.20;;;7.30;99.90;;;;;;5022268;28;20033;-54